Pagina principale
METAR-TAF:

METAR-TAF

Aeroporti :

Aeroporto di Brjansk

Brjansk, Russia

latitudine: 53-15N, longitudine: 034-19E, altezza: 217 m

Osservazione

Il bollettino è stato emesso 3 ore e 58 minuti fa, alle 15:00 UTC
Vento 8 kt da sud
Temperature 24°C
Umidità 38%
Pressione 1019 hPa
Visibilità 10 km o più
nessuna nube inferiore a 1500 m e nessun cumulonembo

METAR: UUBP 101500Z 19004MPS CAVOK 24/09 Q1019 R16/CLRD70 NOSIG RMK QFE746/0995

Ora: 21:58 (18:58 UTC)

Previsione

Il bollettino è stato emesso 7 ore e 59 minuti fa, alle 10:59 UTC
Previsione valida dal 10 alle 12 UTC al 10 alle 21 UTC
Vento 8 kt da sud-ovest con raffiche fino a 17 kt
Visibilità 10 km o più
Nubi sparse ad un'altezza di 3000 ft

TAF: UUBP 101059Z 1012/1021 22004G09MPS 9999 SCT030

Osservazioni e previsioni meteorologiche di più di 4000 aeroporti (messaggi METAR e TAF).

Le stazioni disponibili sono rappresentate dai dischi gialli e rossi sulla carta.

Puntare il mouse per vedere il nome della stazione.

Clicca sopra per visualizzare le osservazioni e previsioni meteorologiche.

Per cambiare la mappa : fare clic sui pulsanti verdi con una croce nera per ingrandire, il pulsante verde con un trattino per diminuire, o sulla freccia verde per le mappe adiacenti.


METAR-TAF: